createdAt,value
2018-04-22T00:00:34.035Z,991.50
2018-04-22T00:01:34.062Z,991.52
2018-04-22T00:02:34.089Z,991.50
2018-04-22T00:03:34.116Z,991.50
2018-04-22T00:04:34.143Z,991.52
2018-04-22T00:05:34.169Z,991.53
2018-04-22T00:06:34.197Z,991.53
2018-04-22T00:07:34.224Z,991.54
2018-04-22T00:08:34.251Z,991.55
2018-04-22T00:09:34.276Z,991.51
2018-04-22T00:10:34.304Z,991.56
2018-04-22T00:11:34.334Z,991.61
2018-04-22T00:12:34.359Z,991.59
2018-04-22T00:13:34.383Z,991.58
2018-04-22T00:14:34.411Z,991.62
2018-04-22T00:15:34.439Z,991.64
2018-04-22T00:16:34.465Z,991.67
2018-04-22T00:17:34.492Z,991.65
2018-04-22T00:18:34.519Z,991.61
2018-04-22T00:19:34.571Z,991.68
2018-04-22T00:20:34.573Z,991.67
2018-04-22T00:21:34.600Z,991.66
2018-04-22T00:22:34.627Z,991.69
2018-04-22T00:23:34.654Z,991.69
2018-04-22T00:24:34.682Z,991.70
2018-04-22T00:25:34.707Z,991.73
2018-04-22T00:26:34.734Z,991.71
2018-04-22T00:27:34.761Z,991.73
2018-04-22T00:28:34.788Z,991.81
2018-04-22T00:29:34.815Z,991.79
2018-04-22T00:30:34.842Z,991.79
2018-04-22T00:31:34.869Z,991.81
2018-04-22T00:32:34.896Z,991.82
2018-04-22T00:33:34.922Z,991.84
2018-04-22T00:34:34.973Z,991.86
2018-04-22T00:35:34.977Z,991.87
2018-04-22T00:36:35.004Z,991.90
2018-04-22T00:37:35.030Z,991.88
2018-04-22T00:38:35.057Z,991.89
2018-04-22T00:39:35.084Z,991.93
2018-04-22T00:40:35.149Z,991.94
2018-04-22T00:41:35.138Z,991.96
2018-04-22T00:42:35.166Z,991.97
2018-04-22T00:43:35.250Z,992.00
2018-04-22T00:44:35.223Z,992.01
2018-04-22T00:45:35.245Z,992.01
2018-04-22T00:46:35.273Z,992.02
2018-04-22T00:47:35.299Z,992.02
2018-04-22T00:48:35.328Z,992.04
2018-04-22T00:49:35.354Z,992.04
2018-04-22T00:50:35.381Z,992.08
2018-04-22T00:51:35.409Z,992.04
2018-04-22T00:52:35.440Z,992.08
2018-04-22T00:53:35.462Z,992.10
2018-04-22T00:54:35.492Z,992.10
2018-04-22T00:55:35.516Z,992.12
2018-04-22T00:56:35.543Z,992.11
2018-04-22T00:57:35.571Z,992.13
2018-04-22T00:58:35.597Z,992.11
2018-04-22T00:59:35.624Z,992.13
2018-04-22T01:00:35.651Z,992.12
2018-04-22T01:01:35.678Z,992.15
2018-04-22T01:02:35.720Z,992.16
2018-04-22T01:03:35.742Z,992.18
2018-04-22T01:04:35.760Z,992.15
2018-04-22T01:05:35.785Z,992.18
2018-04-22T01:06:35.813Z,992.20
2018-04-22T01:07:35.845Z,992.20
2018-04-22T01:08:35.866Z,992.26
2018-04-22T01:09:35.892Z,992.24
2018-04-22T01:10:35.921Z,992.25
2018-04-22T01:11:35.946Z,992.24
2018-04-22T01:12:35.974Z,992.27
2018-04-22T01:13:36.000Z,992.26
2018-04-22T01:14:36.027Z,992.26
2018-04-22T01:15:36.060Z,992.27
2018-04-22T01:16:36.081Z,992.30
2018-04-22T01:17:36.111Z,992.30
2018-04-22T01:18:36.135Z,992.29
2018-04-22T01:19:36.161Z,992.30
2018-04-22T01:20:36.189Z,992.35
2018-04-22T01:21:36.216Z,992.36
2018-04-22T01:22:36.256Z,992.38
2018-04-22T01:23:36.274Z,992.41
2018-04-22T01:24:36.298Z,992.40
2018-04-22T01:25:36.332Z,992.41
2018-04-22T01:26:36.353Z,992.41
2018-04-22T01:27:36.380Z,992.42
2018-04-22T01:28:36.407Z,992.43
2018-04-22T01:29:36.438Z,992.43
2018-04-22T01:30:36.470Z,992.44
2018-04-22T01:31:36.488Z,992.48
2018-04-22T01:32:36.516Z,992.47
2018-04-22T01:33:36.544Z,992.49
2018-04-22T01:34:36.570Z,992.53
2018-04-22T01:35:36.597Z,992.52
2018-04-22T01:36:36.624Z,992.56
2018-04-22T01:37:36.651Z,992.55
2018-04-22T01:38:36.677Z,992.55
2018-04-22T01:39:36.704Z,992.56
2018-04-22T01:40:36.732Z,992.56
2018-04-22T01:41:36.758Z,992.60
2018-04-22T01:42:36.786Z,992.58
2018-04-22T01:43:36.812Z,992.61
2018-04-22T01:44:36.840Z,992.63
2018-04-22T01:45:36.910Z,992.64
2018-04-22T01:46:36.894Z,992.64
2018-04-22T01:47:36.920Z,992.66
2018-04-22T01:48:36.961Z,992.70
2018-04-22T01:49:36.977Z,992.72
2018-04-22T01:50:37.042Z,992.72
2018-04-22T01:51:37.028Z,992.73
2018-04-22T01:52:37.057Z,992.77
2018-04-22T01:53:37.081Z,992.78
2018-04-22T01:54:37.109Z,992.77
2018-04-22T01:55:37.136Z,992.82
2018-04-22T01:56:37.162Z,992.80
2018-04-22T01:57:37.187Z,992.82
2018-04-22T01:58:37.215Z,992.83
2018-04-22T01:59:37.242Z,992.85
2018-04-22T02:00:37.279Z,992.88
2018-04-22T02:01:37.295Z,992.86
2018-04-22T02:02:37.322Z,992.88
2018-04-22T02:03:37.351Z,992.84
2018-04-22T02:04:37.377Z,992.84
2018-04-22T02:05:37.406Z,992.85
2018-04-22T02:06:37.433Z,992.90
2018-04-22T02:07:37.456Z,992.90
2018-04-22T02:08:37.483Z,992.90
2018-04-22T02:09:37.509Z,992.93
2018-04-22T02:10:37.536Z,992.97
2018-04-22T02:11:37.564Z,992.95
2018-04-22T02:12:37.591Z,992.99
2018-04-22T02:13:37.616Z,993.00
2018-04-22T02:14:37.644Z,993.07
2018-04-22T02:15:37.671Z,993.02
2018-04-22T02:16:37.699Z,993.04
2018-04-22T02:17:37.724Z,993.04
2018-04-22T02:18:37.753Z,993.05
2018-04-22T02:19:37.779Z,993.05
2018-04-22T02:20:37.805Z,993.07
2018-04-22T02:21:37.838Z,993.09
2018-04-22T02:22:37.859Z,993.13
2018-04-22T02:23:37.885Z,993.10
2018-04-22T02:24:37.912Z,993.08
2018-04-22T02:25:37.938Z,993.10
2018-04-22T02:26:37.966Z,993.13
2018-04-22T02:27:37.993Z,993.14
2018-04-22T02:28:38.021Z,993.19
2018-04-22T02:29:38.046Z,993.19
2018-04-22T02:30:38.074Z,993.16
2018-04-22T02:31:38.100Z,993.18
2018-04-22T02:32:38.126Z,993.17
2018-04-22T02:33:38.153Z,993.19
2018-04-22T02:34:38.180Z,993.21
2018-04-22T02:35:38.206Z,993.23
2018-04-22T02:36:38.234Z,993.27
2018-04-22T02:37:38.260Z,993.24
2018-04-22T02:38:38.286Z,993.28
2018-04-22T02:39:38.313Z,993.29
2018-04-22T02:40:38.341Z,993.29
2018-04-22T02:41:38.367Z,993.33
2018-04-22T02:42:38.394Z,993.38
2018-04-22T02:43:38.446Z,993.37
2018-04-22T02:44:38.447Z,993.40
2018-04-22T02:45:38.497Z,993.38
2018-04-22T02:46:38.501Z,993.39
2018-04-22T02:47:38.528Z,993.42
2018-04-22T02:48:38.554Z,993.38
2018-04-22T02:49:38.580Z,993.40
2018-04-22T02:50:38.609Z,993.44
2018-04-22T02:51:38.635Z,993.42
2018-04-22T02:52:38.662Z,993.47
2018-04-22T02:53:38.688Z,993.50
2018-04-22T02:54:38.724Z,993.50
2018-04-22T02:55:38.742Z,993.52
2018-04-22T02:56:38.769Z,993.52
2018-04-22T02:57:38.795Z,993.53
2018-04-22T02:58:38.822Z,993.58
2018-04-22T02:59:38.849Z,993.59
2018-04-22T03:00:38.876Z,993.61
2018-04-22T03:01:38.902Z,993.58
2018-04-22T03:02:38.929Z,993.56
2018-04-22T03:03:38.956Z,993.60
2018-04-22T03:04:38.988Z,993.59
2018-04-22T03:05:39.009Z,993.61
2018-04-22T03:06:39.037Z,993.58
2018-04-22T03:07:39.063Z,993.62
2018-04-22T03:08:39.091Z,993.66
2018-04-22T03:09:39.117Z,993.63
2018-04-22T03:10:39.143Z,993.63
2018-04-22T03:11:39.171Z,993.66
2018-04-22T03:12:39.197Z,993.66
2018-04-22T03:13:39.223Z,993.69
2018-04-22T03:14:39.253Z,993.72
2018-04-22T03:15:39.277Z,993.72
2018-04-22T03:16:39.304Z,993.75
2018-04-22T03:17:39.330Z,993.77
2018-04-22T03:18:39.358Z,993.80
2018-04-22T03:19:39.429Z,993.82
2018-04-22T03:20:39.412Z,993.81
2018-04-22T03:21:39.438Z,993.80
2018-04-22T03:22:39.475Z,993.87
2018-04-22T03:23:39.505Z,993.90
2018-04-22T03:24:39.519Z,993.91
2018-04-22T03:25:39.547Z,993.91
2018-04-22T03:26:39.572Z,993.93
2018-04-22T03:27:39.600Z,994.00
2018-04-22T03:28:39.626Z,993.98
2018-04-22T03:29:39.652Z,994.03
2018-04-22T03:30:39.681Z,994.03
2018-04-22T03:31:39.717Z,994.09
2018-04-22T03:32:39.733Z,994.08
2018-04-22T03:33:39.760Z,994.08
2018-04-22T03:34:39.787Z,994.14
2018-04-22T03:35:39.814Z,994.14
2018-04-22T03:36:39.846Z,994.14
2018-04-22T03:37:39.867Z,994.18
2018-04-22T03:38:39.894Z,994.15
2018-04-22T03:39:39.922Z,994.19
2018-04-22T03:40:39.950Z,994.21
2018-04-22T03:41:39.976Z,994.22
2018-04-22T03:42:40.003Z,994.21
2018-04-22T03:43:40.030Z,994.23
2018-04-22T03:44:40.057Z,994.28
2018-04-22T03:45:40.117Z,994.27
2018-04-22T03:46:40.110Z,994.30
2018-04-22T03:47:40.137Z,994.31
2018-04-22T03:48:40.167Z,994.32
2018-04-22T03:49:40.191Z,994.32
2018-04-22T03:50:40.218Z,994.37
2018-04-22T03:51:40.249Z,994.40
2018-04-22T03:52:40.272Z,994.41
2018-04-22T03:53:40.299Z,994.42
2018-04-22T03:54:40.325Z,994.45
2018-04-22T03:55:40.353Z,994.51
2018-04-22T03:56:40.429Z,994.45
2018-04-22T03:57:40.440Z,994.50
2018-04-22T03:58:40.436Z,994.53
2018-04-22T03:59:40.460Z,994.55
2018-04-22T04:00:40.488Z,994.57
2018-04-22T04:01:40.514Z,994.57
2018-04-22T04:02:40.552Z,994.60
2018-04-22T04:03:40.567Z,994.63
2018-04-22T04:04:40.595Z,994.62
2018-04-22T04:05:40.623Z,994.63
2018-04-22T04:06:40.650Z,994.67
2018-04-22T04:07:40.675Z,994.64
2018-04-22T04:08:40.704Z,994.69
2018-04-22T04:09:40.729Z,994.71
2018-04-22T04:10:40.769Z,994.73
2018-04-22T04:11:40.783Z,994.66
2018-04-22T04:12:40.810Z,994.76
2018-04-22T04:13:40.836Z,994.76
2018-04-22T04:14:40.863Z,994.77
2018-04-22T04:15:40.913Z,994.80
2018-04-22T04:16:40.917Z,994.83
2018-04-22T04:17:40.944Z,994.88
2018-04-22T04:18:40.971Z,994.88
2018-04-22T04:19:40.999Z,994.93
2018-04-22T04:20:41.036Z,994.92
2018-04-22T04:21:41.051Z,994.94
2018-04-22T04:22:41.077Z,994.96
2018-04-22T04:23:41.105Z,994.95
2018-04-22T04:24:41.132Z,994.97
2018-04-22T04:25:41.159Z,994.96
2018-04-22T04:26:41.185Z,994.98
2018-04-22T04:27:41.213Z,995.01
2018-04-22T04:28:41.272Z,995.07
2018-04-22T04:29:41.267Z,995.07
2018-04-22T04:30:41.300Z,995.04
2018-04-22T04:31:41.321Z,995.04
2018-04-22T04:32:41.348Z,995.11
2018-04-22T04:33:41.374Z,995.08
2018-04-22T04:34:41.401Z,995.16
2018-04-22T04:35:41.428Z,995.13
2018-04-22T04:36:41.465Z,995.12
2018-04-22T04:37:41.497Z,995.16
2018-04-22T04:38:41.508Z,995.19
2018-04-22T04:39:41.539Z,995.20
2018-04-22T04:40:41.563Z,995.23
2018-04-22T04:41:41.594Z,995.24
2018-04-22T04:42:41.616Z,995.26
2018-04-22T04:43:41.643Z,995.27
2018-04-22T04:44:41.671Z,995.31
2018-04-22T04:45:41.729Z,995.32
2018-04-22T04:46:41.724Z,995.32
2018-04-22T04:47:41.750Z,995.34
2018-04-22T04:48:41.796Z,995.34
2018-04-22T04:49:41.806Z,995.29
2018-04-22T04:50:41.832Z,995.32
2018-04-22T04:51:41.859Z,995.39
2018-04-22T04:52:41.888Z,995.36
2018-04-22T04:53:41.916Z,995.38
2018-04-22T04:54:41.939Z,995.41
2018-04-22T04:55:41.966Z,995.44
2018-04-22T04:56:41.993Z,995.47
2018-04-22T04:57:42.020Z,995.48
2018-04-22T04:58:42.047Z,995.50
2018-04-22T04:59:42.073Z,995.50
2018-04-22T05:00:42.100Z,995.51
2018-04-22T05:01:42.129Z,995.50
2018-04-22T05:02:42.154Z,995.54
2018-04-22T05:03:42.181Z,995.57
2018-04-22T05:04:42.208Z,995.59
2018-04-22T05:05:42.234Z,995.59
2018-04-22T05:06:42.261Z,995.60
2018-04-22T05:07:42.289Z,995.61
2018-04-22T05:08:42.333Z,995.67
2018-04-22T05:09:42.342Z,995.71
2018-04-22T05:10:42.369Z,995.69
2018-04-22T05:11:42.397Z,995.70
2018-04-22T05:12:42.423Z,995.73
2018-04-22T05:13:42.450Z,995.73
2018-04-22T05:14:42.477Z,995.79
2018-04-22T05:15:42.505Z,995.83
2018-04-22T05:16:42.532Z,995.83
2018-04-22T05:17:42.601Z,995.86
2018-04-22T05:18:42.591Z,995.91
2018-04-22T05:19:42.612Z,995.92
2018-04-22T05:20:42.641Z,995.96
2018-04-22T05:21:42.665Z,995.98
2018-04-22T05:22:42.692Z,995.97
2018-04-22T05:23:42.722Z,996.02
2018-04-22T05:24:42.747Z,995.99
2018-04-22T05:25:42.773Z,995.98
2018-04-22T05:26:42.801Z,996.02
2018-04-22T05:27:42.828Z,996.02
2018-04-22T05:28:42.855Z,996.02
2018-04-22T05:29:42.881Z,996.03
2018-04-22T05:30:42.939Z,996.06
2018-04-22T05:31:42.954Z,996.04
2018-04-22T05:32:42.962Z,996.08
2018-04-22T05:33:42.992Z,996.06
2018-04-22T05:34:43.016Z,996.09
2018-04-22T05:35:43.044Z,996.07
2018-04-22T05:36:43.095Z,996.08
2018-04-22T05:37:43.096Z,996.13
2018-04-22T05:38:43.124Z,996.11
2018-04-22T05:39:43.151Z,996.13
2018-04-22T05:40:43.178Z,996.19
2018-04-22T05:41:43.223Z,996.20
2018-04-22T05:42:43.260Z,996.21
2018-04-22T05:43:43.294Z,996.22
2018-04-22T05:44:43.286Z,996.27
2018-04-22T05:45:43.312Z,996.24
2018-04-22T05:46:43.339Z,996.30
2018-04-22T05:47:43.371Z,996.27
2018-04-22T05:48:43.404Z,996.33
2018-04-22T05:49:43.422Z,996.32
2018-04-22T05:50:43.448Z,996.36
2018-04-22T05:51:43.476Z,996.41
2018-04-22T05:52:43.521Z,996.42
2018-04-22T05:53:43.529Z,996.42
2018-04-22T05:54:43.557Z,996.41
2018-04-22T05:55:43.618Z,996.46
2018-04-22T05:56:43.611Z,996.46
2018-04-22T05:57:43.637Z,996.48
2018-04-22T05:58:43.665Z,996.48
2018-04-22T05:59:43.692Z,996.45
2018-04-22T06:00:43.720Z,996.50
2018-04-22T06:01:43.746Z,996.48
2018-04-22T06:02:43.774Z,996.50
2018-04-22T06:03:43.802Z,996.52
2018-04-22T06:04:43.827Z,996.53
2018-04-22T06:05:43.853Z,996.53
2018-04-22T06:06:43.881Z,996.58
2018-04-22T06:07:43.909Z,996.58
2018-04-22T06:08:43.936Z,996.56
2018-04-22T06:09:43.963Z,996.59
2018-04-22T06:10:43.989Z,996.58
2018-04-22T06:11:44.018Z,996.62
2018-04-22T06:12:44.045Z,996.63
2018-04-22T06:13:44.070Z,996.68
2018-04-22T06:14:44.098Z,996.70
2018-04-22T06:15:44.126Z,996.75
2018-04-22T06:16:44.152Z,996.73
2018-04-22T06:17:44.179Z,996.72
2018-04-22T06:18:44.206Z,996.74
2018-04-22T06:19:44.264Z,996.73
2018-04-22T06:20:44.261Z,996.74
2018-04-22T06:21:44.287Z,996.79
2018-04-22T06:22:44.314Z,996.78
2018-04-22T06:23:44.341Z,996.81
2018-04-22T06:24:44.369Z,996.85
2018-04-22T06:25:44.396Z,996.87
2018-04-22T06:26:44.423Z,996.87
2018-04-22T06:27:44.451Z,996.88
2018-04-22T06:28:44.478Z,996.85
2018-04-22T06:29:44.504Z,996.89
2018-04-22T06:30:44.532Z,996.91
2018-04-22T06:31:44.559Z,996.93
2018-04-22T06:32:44.587Z,996.96
2018-04-22T06:33:44.613Z,996.98
2018-04-22T06:34:44.639Z,996.97
2018-04-22T06:35:44.667Z,997.01
2018-04-22T06:36:44.694Z,997.01
2018-04-22T06:37:44.721Z,997.02
2018-04-22T06:38:44.748Z,997.05
2018-04-22T06:39:44.779Z,997.02
2018-04-22T06:40:44.803Z,997.07
2018-04-22T06:41:44.830Z,997.08
2018-04-22T06:42:44.862Z,997.13
2018-04-22T06:43:44.885Z,997.15
2018-04-22T06:44:44.913Z,997.13
2018-04-22T06:45:44.939Z,997.14
2018-04-22T06:46:44.966Z,997.20
2018-04-22T06:47:44.994Z,997.20
2018-04-22T06:48:45.021Z,997.22
2018-04-22T06:49:45.047Z,997.21
2018-04-22T06:50:45.076Z,997.24
2018-04-22T06:51:45.102Z,997.27
2018-04-22T06:52:45.129Z,997.30
2018-04-22T06:53:45.155Z,997.31
2018-04-22T06:54:45.183Z,997.30
2018-04-22T06:55:45.210Z,997.30
2018-04-22T06:56:45.237Z,997.27
2018-04-22T06:57:45.269Z,997.30
2018-04-22T06:58:45.347Z,997.31
2018-04-22T06:59:45.333Z,997.34
2018-04-22T07:00:45.345Z,997.31
2018-04-22T07:01:45.373Z,997.31
2018-04-22T07:02:45.402Z,997.33
2018-04-22T07:03:45.427Z,997.29
2018-04-22T07:04:45.490Z,997.30
2018-04-22T07:05:45.517Z,997.34
2018-04-22T07:06:45.513Z,997.33
2018-04-22T07:07:45.536Z,997.33
2018-04-22T07:08:45.563Z,997.39
2018-04-22T07:09:45.591Z,997.39
2018-04-22T07:10:45.618Z,997.44
2018-04-22T07:11:45.645Z,997.45
2018-04-22T07:12:45.672Z,997.45
2018-04-22T07:13:45.699Z,997.46
2018-04-22T07:14:45.726Z,997.51
2018-04-22T07:15:45.754Z,997.58
2018-04-22T07:16:45.836Z,997.57
2018-04-22T07:17:45.838Z,997.58
2018-04-22T07:18:45.838Z,997.60
2018-04-22T07:19:45.861Z,997.59
2018-04-22T07:20:45.889Z,997.61
2018-04-22T07:21:45.916Z,997.59
2018-04-22T07:22:45.943Z,997.61
2018-04-22T07:23:45.970Z,997.60
2018-04-22T07:24:45.998Z,997.61
2018-04-22T07:25:46.025Z,997.66
2018-04-22T07:26:46.052Z,997.68
2018-04-22T07:27:46.079Z,997.69
2018-04-22T07:28:46.107Z,997.72
2018-04-22T07:29:46.134Z,997.72
2018-04-22T07:30:46.163Z,997.71
2018-04-22T07:31:46.188Z,997.74
2018-04-22T07:32:46.216Z,997.77
2018-04-22T07:33:46.250Z,997.82
2018-04-22T07:34:46.269Z,997.77
2018-04-22T07:35:46.307Z,997.78
2018-04-22T07:36:46.325Z,997.81
2018-04-22T07:37:46.360Z,997.81
2018-04-22T07:38:46.378Z,997.82
2018-04-22T07:39:46.410Z,997.84
2018-04-22T07:40:46.468Z,997.84
2018-04-22T07:41:46.463Z,997.86
2018-04-22T07:42:46.487Z,997.87
2018-04-22T07:43:46.514Z,997.87
2018-04-22T07:44:46.542Z,997.91
2018-04-22T07:45:46.567Z,997.90
2018-04-22T07:46:46.630Z,997.92
2018-04-22T07:47:46.625Z,997.92
2018-04-22T07:48:46.650Z,997.88
2018-04-22T07:49:46.677Z,997.91
2018-04-22T07:50:46.703Z,997.91
2018-04-22T07:51:46.731Z,997.95
2018-04-22T07:52:46.758Z,997.96
2018-04-22T07:53:46.785Z,998.04
2018-04-22T07:54:46.823Z,998.05
2018-04-22T07:55:46.840Z,998.06
2018-04-22T07:56:46.867Z,998.04
2018-04-22T07:57:46.893Z,998.02
2018-04-22T07:58:46.921Z,998.08
2018-04-22T07:59:46.949Z,998.07
2018-04-22T08:00:47.012Z,998.10
2018-04-22T08:01:47.003Z,998.15
2018-04-22T08:02:47.030Z,998.16
2018-04-22T08:03:47.061Z,998.18
2018-04-22T08:04:47.086Z,998.22
2018-04-22T08:05:47.112Z,998.23
2018-04-22T08:06:47.187Z,998.24
2018-04-22T08:07:47.166Z,998.25
2018-04-22T08:08:47.193Z,998.28
2018-04-22T08:09:47.220Z,998.23
2018-04-22T08:10:47.280Z,998.27
2018-04-22T08:11:47.275Z,998.30
2018-04-22T08:12:47.304Z,998.31
2018-04-22T08:13:47.329Z,998.34
2018-04-22T08:14:47.357Z,998.28
2018-04-22T08:15:47.384Z,998.33
2018-04-22T08:16:47.412Z,998.34
2018-04-22T08:17:47.438Z,998.32
2018-04-22T08:18:47.503Z,998.35
2018-04-22T08:19:47.493Z,998.38
2018-04-22T08:20:47.521Z,998.39
2018-04-22T08:21:47.562Z,998.42
2018-04-22T08:22:47.574Z,998.43
2018-04-22T08:23:47.602Z,998.44
2018-04-22T08:24:47.630Z,998.40
2018-04-22T08:25:47.656Z,998.45
2018-04-22T08:26:47.683Z,998.47
2018-04-22T08:27:47.710Z,998.48
2018-04-22T08:28:47.739Z,998.51
2018-04-22T08:29:47.765Z,998.54
2018-04-22T08:30:47.792Z,998.53
2018-04-22T08:31:47.819Z,998.55
2018-04-22T08:32:47.847Z,998.57
2018-04-22T08:33:47.873Z,998.58
2018-04-22T08:34:47.901Z,998.60
2018-04-22T08:35:47.931Z,998.63
2018-04-22T08:36:47.958Z,998.63
2018-04-22T08:37:47.981Z,998.64
2018-04-22T08:38:48.009Z,998.67
2018-04-22T08:39:48.037Z,998.67
2018-04-22T08:40:48.064Z,998.67
2018-04-22T08:41:48.090Z,998.74
2018-04-22T08:42:48.118Z,998.70
2018-04-22T08:43:48.144Z,998.76
2018-04-22T08:44:48.173Z,998.78
2018-04-22T08:45:48.200Z,998.81
2018-04-22T08:46:48.228Z,998.77
2018-04-22T08:47:48.254Z,998.82
2018-04-22T08:48:48.281Z,998.76
2018-04-22T08:49:48.311Z,998.88
2018-04-22T08:50:48.335Z,998.87
2018-04-22T08:51:48.362Z,998.90
2018-04-22T08:52:48.391Z,998.94
2018-04-22T08:53:48.417Z,998.96
2018-04-22T08:54:48.445Z,998.98
2018-04-22T08:55:48.474Z,998.95
2018-04-22T08:56:48.509Z,998.96
2018-04-22T08:57:48.527Z,999.03
2018-04-22T08:58:48.552Z,999.00
2018-04-22T08:59:48.582Z,999.03
2018-04-22T09:00:48.607Z,999.01
2018-04-22T09:01:48.638Z,999.04
2018-04-22T09:02:48.661Z,999.06
2018-04-22T09:03:48.727Z,999.10
2018-04-22T09:04:48.716Z,999.11
2018-04-22T09:05:48.774Z,999.13
2018-04-22T09:06:48.770Z,999.12
2018-04-22T09:07:48.800Z,999.15
2018-04-22T09:08:48.826Z,999.11
2018-04-22T09:09:48.851Z,999.13
2018-04-22T09:10:48.884Z,999.16
2018-04-22T09:11:48.909Z,999.15
2018-04-22T09:12:48.934Z,999.17
2018-04-22T09:13:48.960Z,999.22
2018-04-22T09:14:48.987Z,999.22
2018-04-22T09:15:49.018Z,999.21
2018-04-22T09:16:49.043Z,999.23
2018-04-22T09:17:49.100Z,999.26
2018-04-22T09:18:49.097Z,999.25
2018-04-22T09:19:49.123Z,999.26
2018-04-22T09:20:49.151Z,999.29
2018-04-22T09:21:49.178Z,999.31
2018-04-22T09:22:49.205Z,999.32
2018-04-22T09:23:49.238Z,999.34
2018-04-22T09:24:49.263Z,999.34
2018-04-22T09:25:49.287Z,999.34
2018-04-22T09:26:49.314Z,999.33
2018-04-22T09:27:49.351Z,999.34
2018-04-22T09:28:49.368Z,999.36
2018-04-22T09:29:49.395Z,999.38
2018-04-22T09:30:49.422Z,999.38
2018-04-22T09:31:49.449Z,999.42
2018-04-22T09:32:49.483Z,999.44
2018-04-22T09:33:49.505Z,999.45
2018-04-22T09:34:49.531Z,999.44
2018-04-22T09:35:49.558Z,999.43
2018-04-22T09:36:49.620Z,999.49
2018-04-22T09:37:49.613Z,999.50
2018-04-22T09:38:49.659Z,999.47
2018-04-22T09:39:49.667Z,999.47
2018-04-22T09:40:49.694Z,999.50
2018-04-22T09:41:49.720Z,999.48
2018-04-22T09:42:49.749Z,999.53
2018-04-22T09:43:49.775Z,999.54
2018-04-22T09:44:49.803Z,999.57
2018-04-22T09:45:49.863Z,999.55
2018-04-22T09:46:49.861Z,999.56
2018-04-22T09:47:49.900Z,999.57
2018-04-22T09:48:49.911Z,999.59
2018-04-22T09:49:49.991Z,999.62
2018-04-22T09:50:49.965Z,999.64
2018-04-22T09:51:49.992Z,999.63
2018-04-22T09:52:50.020Z,999.63
2018-04-22T09:53:50.046Z,999.60
2018-04-22T09:54:50.074Z,999.64
2018-04-22T09:55:50.101Z,999.61
2018-04-22T09:56:50.129Z,999.60
2018-04-22T09:57:50.155Z,999.61
2018-04-22T09:58:50.182Z,999.64
2018-04-22T09:59:50.209Z,999.63
2018-04-22T10:00:50.237Z,999.64
2018-04-22T10:01:50.263Z,999.65
2018-04-22T10:02:50.291Z,999.66
2018-04-22T10:03:50.318Z,999.61
2018-04-22T10:04:50.398Z,999.64
2018-04-22T10:05:50.372Z,999.68
2018-04-22T10:06:50.400Z,999.71
2018-04-22T10:07:50.426Z,999.74
2018-04-22T10:08:50.454Z,999.75
2018-04-22T10:09:50.480Z,999.73
2018-04-22T10:10:50.511Z,999.76
2018-04-22T10:11:50.553Z,999.75
2018-04-22T10:12:50.562Z,999.76
2018-04-22T10:13:50.603Z,999.76
2018-04-22T10:14:50.617Z,999.81
2018-04-22T10:15:50.645Z,999.78
2018-04-22T10:16:50.692Z,999.80
2018-04-22T10:17:50.698Z,999.79
2018-04-22T10:18:50.759Z,999.80
2018-04-22T10:19:50.752Z,999.84
2018-04-22T10:20:50.780Z,999.86
2018-04-22T10:21:50.808Z,999.83
2018-04-22T10:22:50.834Z,999.85
2018-04-22T10:23:50.901Z,999.92
2018-04-22T10:24:50.889Z,999.89
2018-04-22T10:25:50.952Z,999.90
2018-04-22T10:26:50.977Z,999.91
2018-04-22T10:27:50.971Z,999.95
2018-04-22T10:28:50.998Z,999.99
2018-04-22T10:29:51.024Z,1000.03
2018-04-22T10:30:51.053Z,1000.01
2018-04-22T10:31:51.079Z,1000.02
2018-04-22T10:32:51.106Z,1000.01
2018-04-22T10:33:51.133Z,1000.07
2018-04-22T10:34:51.160Z,1000.05
2018-04-22T10:35:51.189Z,1000.09
2018-04-22T10:36:51.214Z,1000.09
2018-04-22T10:37:51.241Z,1000.15
2018-04-22T10:38:51.268Z,1000.14
2018-04-22T10:39:51.297Z,1000.14
2018-04-22T10:40:51.323Z,1000.18
2018-04-22T10:41:51.350Z,1000.13
2018-04-22T10:42:51.379Z,1000.19
2018-04-22T10:43:51.405Z,1000.22
2018-04-22T10:44:51.434Z,1000.22
2018-04-22T10:45:51.459Z,1000.23
2018-04-22T10:46:51.486Z,1000.22
2018-04-22T10:47:51.514Z,1000.23
2018-04-22T10:48:51.578Z,1000.27
2018-04-22T10:49:51.568Z,1000.28
2018-04-22T10:50:51.595Z,1000.29
2018-04-22T10:51:51.622Z,1000.25
2018-04-22T10:52:51.650Z,1000.29
2018-04-22T10:53:51.676Z,1000.30
2018-04-22T10:54:51.706Z,1000.31
2018-04-22T10:55:51.731Z,1000.30
2018-04-22T10:56:51.771Z,1000.32
2018-04-22T10:57:51.829Z,1000.39
2018-04-22T10:58:51.812Z,1000.32
2018-04-22T10:59:51.872Z,1000.36
2018-04-22T11:00:51.866Z,1000.35
2018-04-22T11:01:51.916Z,1000.38
2018-04-22T11:02:51.921Z,1000.38
2018-04-22T11:03:51.950Z,1000.37
2018-04-22T11:04:51.975Z,1000.38
2018-04-22T11:05:52.002Z,1000.41
2018-04-22T11:06:52.029Z,1000.39
2018-04-22T11:07:52.061Z,1000.39
2018-04-22T11:08:52.084Z,1000.39
2018-04-22T11:09:52.156Z,1000.43
2018-04-22T11:10:52.139Z,1000.41
2018-04-22T11:11:52.166Z,1000.42
2018-04-22T11:12:52.193Z,1000.42
2018-04-22T11:13:52.220Z,1000.40
2018-04-22T11:14:52.287Z,1000.42
2018-04-22T11:15:52.304Z,1000.37
2018-04-22T11:16:52.302Z,1000.39
2018-04-22T11:17:52.329Z,1000.37
2018-04-22T11:18:52.355Z,1000.41
2018-04-22T11:19:52.383Z,1000.41
2018-04-22T11:20:52.423Z,1000.43
2018-04-22T11:21:52.436Z,1000.45
2018-04-22T11:22:52.464Z,1000.47
2018-04-22T11:23:52.491Z,1000.47
2018-04-22T11:24:52.519Z,1000.45
2018-04-22T11:25:52.561Z,1000.49
2018-04-22T11:26:52.610Z,1000.50
2018-04-22T11:27:52.601Z,1000.47
2018-04-22T11:28:52.628Z,1000.54
2018-04-22T11:29:52.655Z,1000.54
2018-04-22T11:30:52.712Z,1000.53
2018-04-22T11:31:52.710Z,1000.53
2018-04-22T11:32:52.736Z,1000.60
2018-04-22T11:33:52.769Z,1000.54
2018-04-22T11:34:52.796Z,1000.56
2018-04-22T11:35:52.818Z,1000.56
2018-04-22T11:36:52.847Z,1000.57
2018-04-22T11:37:52.875Z,1000.61
2018-04-22T11:38:52.899Z,1000.59
2018-04-22T11:39:52.927Z,1000.61
2018-04-22T11:40:52.954Z,1000.62
2018-04-22T11:41:52.981Z,1000.62
2018-04-22T11:42:53.012Z,1000.63
2018-04-22T11:43:53.036Z,1000.63
2018-04-22T11:44:53.064Z,1000.69
2018-04-22T11:45:53.114Z,1000.68
2018-04-22T11:46:53.120Z,1000.70
2018-04-22T11:47:53.148Z,1000.65
2018-04-22T11:48:53.194Z,1000.69
2018-04-22T11:49:53.199Z,1000.70
2018-04-22T11:50:53.227Z,1000.69
2018-04-22T11:51:53.256Z,1000.72
2018-04-22T11:52:53.282Z,1000.70
2018-04-22T11:53:53.309Z,1000.73
2018-04-22T11:54:53.336Z,1000.73
2018-04-22T11:55:53.362Z,1000.74
2018-04-22T11:56:53.390Z,1000.76
2018-04-22T11:57:53.416Z,1000.83
2018-04-22T11:58:53.444Z,1000.78
2018-04-22T11:59:53.531Z,1000.76
2018-04-22T12:00:53.499Z,1000.74
2018-04-22T12:01:53.525Z,1000.74
2018-04-22T12:02:53.553Z,1000.75
2018-04-22T12:03:53.585Z,1000.70
2018-04-22T12:04:53.612Z,1000.69
2018-04-22T12:05:53.635Z,1000.70
2018-04-22T12:06:53.664Z,1000.70
2018-04-22T12:07:53.689Z,1000.74
2018-04-22T12:08:53.718Z,1000.73
2018-04-22T12:09:53.743Z,1000.76
2018-04-22T12:10:53.775Z,1000.74
2018-04-22T12:11:53.799Z,1000.76
2018-04-22T12:12:53.826Z,1000.78
2018-04-22T12:13:53.853Z,1000.82
2018-04-22T12:14:53.880Z,1000.83
2018-04-22T12:15:53.907Z,1000.82
2018-04-22T12:16:53.936Z,1000.84
2018-04-22T12:17:53.963Z,1000.87
2018-04-22T12:18:53.989Z,1000.84
2018-04-22T12:19:54.016Z,1000.86
2018-04-22T12:20:54.044Z,1000.88
2018-04-22T12:21:54.070Z,1000.87
2018-04-22T12:22:54.098Z,1000.91
2018-04-22T12:23:54.154Z,1000.89
2018-04-22T12:24:54.153Z,1000.90